sensor_id;sensor_type;location;lat;lon;timestamp;P1;durP1;ratioP1;P2;durP2;ratioP2
2762;SDS011;1389;51.490;7.338;2023-04-25T00:01:47;493.98;;;343.15;;
2762;SDS011;1389;51.490;7.338;2023-04-25T00:04:13;473.70;;;307.37;;
2762;SDS011;1389;51.490;7.338;2023-04-25T00:06:39;476.13;;;312.25;;
2762;SDS011;1389;51.490;7.338;2023-04-25T00:09:06;472.90;;;309.17;;
2762;SDS011;1389;51.490;7.338;2023-04-25T00:11:36;482.20;;;310.52;;
2762;SDS011;1389;51.490;7.338;2023-04-25T00:14:03;472.53;;;304.87;;
2762;SDS011;1389;51.490;7.338;2023-04-25T00:16:29;468.07;;;306.40;;
2762;SDS011;1389;51.490;7.338;2023-04-25T00:18:58;468.80;;;305.33;;
2762;SDS011;1389;51.490;7.338;2023-04-25T00:21:25;470.38;;;305.80;;
2762;SDS011;1389;51.490;7.338;2023-04-25T00:23:52;468.77;;;306.33;;
2762;SDS011;1389;51.490;7.338;2023-04-25T00:26:18;491.15;;;330.88;;
2762;SDS011;1389;51.490;7.338;2023-04-25T00:28:46;470.70;;;307.55;;
2762;SDS011;1389;51.490;7.338;2023-04-25T00:31:13;468.95;;;302.08;;
2762;SDS011;1389;51.490;7.338;2023-04-25T00:33:39;475.57;;;307.60;;
2762;SDS011;1389;51.490;7.338;2023-04-25T00:36:06;471.40;;;306.20;;
2762;SDS011;1389;51.490;7.338;2023-04-25T00:38:32;467.98;;;305.20;;
2762;SDS011;1389;51.490;7.338;2023-04-25T00:40:58;467.40;;;302.90;;
2762;SDS011;1389;51.490;7.338;2023-04-25T00:43:27;473.77;;;311.48;;
2762;SDS011;1389;51.490;7.338;2023-04-25T00:45:55;472.67;;;307.08;;
2762;SDS011;1389;51.490;7.338;2023-04-25T00:48:23;469.92;;;303.95;;
2762;SDS011;1389;51.490;7.338;2023-04-25T00:50:53;470.17;;;302.73;;
2762;SDS011;1389;51.490;7.338;2023-04-25T00:53:20;478.85;;;308.40;;
2762;SDS011;1389;51.490;7.338;2023-04-25T00:55:47;472.83;;;307.27;;
2762;SDS011;1389;51.490;7.338;2023-04-25T00:58:16;472.23;;;303.92;;
2762;SDS011;1389;51.490;7.338;2023-04-25T01:00:43;476.25;;;312.60;;
2762;SDS011;1389;51.490;7.338;2023-04-25T01:03:14;470.77;;;307.70;;
2762;SDS011;1389;51.490;7.338;2023-04-25T01:05:45;472.17;;;305.80;;
2762;SDS011;1389;51.490;7.338;2023-04-25T01:08:12;466.42;;;300.85;;
2762;SDS011;1389;51.490;7.338;2023-04-25T01:10:39;464.00;;;299.80;;
2762;SDS011;1389;51.490;7.338;2023-04-25T01:13:05;471.42;;;301.73;;
2762;SDS011;1389;51.490;7.338;2023-04-25T01:15:32;469.58;;;302.55;;
2762;SDS011;1389;51.490;7.338;2023-04-25T01:17:58;464.23;;;299.10;;
2762;SDS011;1389;51.490;7.338;2023-04-25T01:20:26;468.50;;;304.17;;
2762;SDS011;1389;51.490;7.338;2023-04-25T01:22:53;464.33;;;298.08;;
2762;SDS011;1389;51.490;7.338;2023-04-25T01:25:21;489.40;;;331.40;;
2762;SDS011;1389;51.490;7.338;2023-04-25T01:27:48;465.05;;;299.40;;
2762;SDS011;1389;51.490;7.338;2023-04-25T01:30:14;467.38;;;302.15;;
2762;SDS011;1389;51.490;7.338;2023-04-25T01:32:41;463.65;;;296.90;;
2762;SDS011;1389;51.490;7.338;2023-04-25T01:35:08;467.80;;;298.25;;
2762;SDS011;1389;51.490;7.338;2023-04-25T01:37:39;470.60;;;297.52;;
2762;SDS011;1389;51.490;7.338;2023-04-25T01:40:06;470.00;;;303.70;;
2762;SDS011;1389;51.490;7.338;2023-04-25T01:42:34;477.52;;;318.95;;
2762;SDS011;1389;51.490;7.338;2023-04-25T01:45:02;475.40;;;314.05;;
2762;SDS011;1389;51.490;7.338;2023-04-25T01:47:28;454.58;;;288.17;;
2762;SDS011;1389;51.490;7.338;2023-04-25T01:49:54;482.10;;;325.60;;
2762;SDS011;1389;51.490;7.338;2023-04-25T01:52:20;467.50;;;301.70;;
2762;SDS011;1389;51.490;7.338;2023-04-25T01:54:47;460.25;;;294.98;;
2762;SDS011;1389;51.490;7.338;2023-04-25T01:57:14;462.63;;;297.85;;
2762;SDS011;1389;51.490;7.338;2023-04-25T01:59:40;474.97;;;318.20;;
2762;SDS011;1389;51.490;7.338;2023-04-25T02:02:07;464.90;;;307.63;;
2762;SDS011;1389;51.490;7.338;2023-04-25T02:04:33;457.35;;;294.65;;
2762;SDS011;1389;51.490;7.338;2023-04-25T02:06:59;456.42;;;292.83;;
2762;SDS011;1389;51.490;7.338;2023-04-25T02:09:25;466.17;;;305.40;;
2762;SDS011;1389;51.490;7.338;2023-04-25T02:11:52;458.05;;;292.65;;
2762;SDS011;1389;51.490;7.338;2023-04-25T02:14:18;449.75;;;280.67;;
2762;SDS011;1389;51.490;7.338;2023-04-25T02:16:44;457.90;;;289.90;;
2762;SDS011;1389;51.490;7.338;2023-04-25T02:19:11;454.92;;;285.52;;
2762;SDS011;1389;51.490;7.338;2023-04-25T02:21:37;449.27;;;282.67;;
2762;SDS011;1389;51.490;7.338;2023-04-25T02:24:03;455.30;;;289.63;;
2762;SDS011;1389;51.490;7.338;2023-04-25T02:26:30;468.10;;;309.27;;
2762;SDS011;1389;51.490;7.338;2023-04-25T02:28:56;465.88;;;300.60;;
2762;SDS011;1389;51.490;7.338;2023-04-25T02:31:22;461.20;;;295.75;;
2762;SDS011;1389;51.490;7.338;2023-04-25T02:33:48;494.53;;;344.43;;
2762;SDS011;1389;51.490;7.338;2023-04-25T02:36:14;473.17;;;313.73;;
2762;SDS011;1389;51.490;7.338;2023-04-25T02:38:40;473.73;;;309.53;;
2762;SDS011;1389;51.490;7.338;2023-04-25T02:41:06;467.13;;;304.02;;
2762;SDS011;1389;51.490;7.338;2023-04-25T02:43:32;471.47;;;314.10;;
2762;SDS011;1389;51.490;7.338;2023-04-25T02:45:58;459.30;;;295.58;;
2762;SDS011;1389;51.490;7.338;2023-04-25T02:48:24;455.00;;;281.50;;
2762;SDS011;1389;51.490;7.338;2023-04-25T02:50:50;448.02;;;280.35;;
2762;SDS011;1389;51.490;7.338;2023-04-25T02:53:16;460.57;;;293.37;;
2762;SDS011;1389;51.490;7.338;2023-04-25T02:55:43;449.25;;;281.23;;
2762;SDS011;1389;51.490;7.338;2023-04-25T02:58:09;440.30;;;271.80;;
2762;SDS011;1389;51.490;7.338;2023-04-25T03:00:36;433.83;;;259.02;;
2762;SDS011;1389;51.490;7.338;2023-04-25T03:03:02;457.43;;;289.97;;
2762;SDS011;1389;51.490;7.338;2023-04-25T03:05:28;446.20;;;272.55;;
2762;SDS011;1389;51.490;7.338;2023-04-25T03:07:54;439.73;;;269.70;;
2762;SDS011;1389;51.490;7.338;2023-04-25T03:10:20;455.60;;;288.02;;
2762;SDS011;1389;51.490;7.338;2023-04-25T03:12:46;439.50;;;267.90;;
2762;SDS011;1389;51.490;7.338;2023-04-25T03:15:12;448.30;;;275.42;;
2762;SDS011;1389;51.490;7.338;2023-04-25T03:17:38;441.70;;;270.27;;
2762;SDS011;1389;51.490;7.338;2023-04-25T03:20:04;455.20;;;285.83;;
2762;SDS011;1389;51.490;7.338;2023-04-25T03:22:31;445.98;;;269.95;;
2762;SDS011;1389;51.490;7.338;2023-04-25T03:24:57;446.73;;;271.98;;
2762;SDS011;1389;51.490;7.338;2023-04-25T03:27:23;438.58;;;264.30;;
2762;SDS011;1389;51.490;7.338;2023-04-25T03:29:49;448.73;;;270.20;;
2762;SDS011;1389;51.490;7.338;2023-04-25T03:32:15;448.40;;;282.10;;
2762;SDS011;1389;51.490;7.338;2023-04-25T03:34:41;435.58;;;264.00;;
2762;SDS011;1389;51.490;7.338;2023-04-25T03:37:07;447.00;;;278.15;;
2762;SDS011;1389;51.490;7.338;2023-04-25T03:39:33;440.75;;;270.10;;
2762;SDS011;1389;51.490;7.338;2023-04-25T03:41:59;433.17;;;261.35;;
2762;SDS011;1389;51.490;7.338;2023-04-25T03:44:26;447.80;;;279.48;;
2762;SDS011;1389;51.490;7.338;2023-04-25T03:46:52;440.88;;;269.35;;
2762;SDS011;1389;51.490;7.338;2023-04-25T03:49:18;448.73;;;279.43;;
2762;SDS011;1389;51.490;7.338;2023-04-25T03:51:44;466.35;;;307.85;;
2762;SDS011;1389;51.490;7.338;2023-04-25T03:54:10;440.17;;;268.75;;
2762;SDS011;1389;51.490;7.338;2023-04-25T03:56:36;445.50;;;271.25;;
2762;SDS011;1389;51.490;7.338;2023-04-25T03:59:02;460.63;;;300.50;;
2762;SDS011;1389;51.490;7.338;2023-04-25T04:01:28;442.23;;;271.17;;
2762;SDS011;1389;51.490;7.338;2023-04-25T04:03:54;455.13;;;288.58;;
2762;SDS011;1389;51.490;7.338;2023-04-25T04:06:20;450.55;;;286.63;;
2762;SDS011;1389;51.490;7.338;2023-04-25T04:08:46;450.15;;;284.98;;
2762;SDS011;1389;51.490;7.338;2023-04-25T04:11:13;544.25;;;414.17;;
2762;SDS011;1389;51.490;7.338;2023-04-25T04:13:39;488.55;;;340.10;;
2762;SDS011;1389;51.490;7.338;2023-04-25T04:16:05;454.60;;;290.45;;
2762;SDS011;1389;51.490;7.338;2023-04-25T04:18:31;455.80;;;296.75;;
2762;SDS011;1389;51.490;7.338;2023-04-25T04:20:58;459.30;;;306.80;;
2762;SDS011;1389;51.490;7.338;2023-04-25T04:23:25;434.08;;;261.38;;
2762;SDS011;1389;51.490;7.338;2023-04-25T04:25:52;445.75;;;283.58;;
2762;SDS011;1389;51.490;7.338;2023-04-25T04:28:19;416.35;;;244.70;;
2762;SDS011;1389;51.490;7.338;2023-04-25T04:30:46;424.60;;;256.20;;
2762;SDS011;1389;51.490;7.338;2023-04-25T04:33:12;427.80;;;257.95;;
2762;SDS011;1389;51.490;7.338;2023-04-25T04:35:39;475.77;;;322.40;;
2762;SDS011;1389;51.490;7.338;2023-04-25T04:38:05;471.30;;;324.73;;
2762;SDS011;1389;51.490;7.338;2023-04-25T04:40:31;442.90;;;284.92;;
2762;SDS011;1389;51.490;7.338;2023-04-25T04:42:57;416.23;;;237.02;;
2762;SDS011;1389;51.490;7.338;2023-04-25T04:45:23;456.00;;;286.43;;
2762;SDS011;1389;51.490;7.338;2023-04-25T04:47:49;416.95;;;242.10;;
2762;SDS011;1389;51.490;7.338;2023-04-25T04:50:15;430.60;;;264.63;;
2762;SDS011;1389;51.490;7.338;2023-04-25T04:52:42;405.60;;;226.98;;
2762;SDS011;1389;51.490;7.338;2023-04-25T04:55:08;409.13;;;227.68;;
2762;SDS011;1389;51.490;7.338;2023-04-25T04:57:34;432.63;;;256.50;;
2762;SDS011;1389;51.490;7.338;2023-04-25T05:00:00;413.73;;;234.17;;
2762;SDS011;1389;51.490;7.338;2023-04-25T05:02:26;427.42;;;254.40;;
2762;SDS011;1389;51.490;7.338;2023-04-25T05:04:53;458.63;;;293.45;;
2762;SDS011;1389;51.490;7.338;2023-04-25T05:07:21;424.67;;;250.30;;
2762;SDS011;1389;51.490;7.338;2023-04-25T05:09:47;466.58;;;294.10;;
2762;SDS011;1389;51.490;7.338;2023-04-25T05:12:13;442.15;;;279.10;;
2762;SDS011;1389;51.490;7.338;2023-04-25T05:14:39;410.80;;;221.77;;
2762;SDS011;1389;51.490;7.338;2023-04-25T05:17:05;428.23;;;249.20;;
2762;SDS011;1389;51.490;7.338;2023-04-25T05:19:34;415.08;;;224.48;;
2762;SDS011;1389;51.490;7.338;2023-04-25T05:22:00;416.07;;;240.63;;
2762;SDS011;1389;51.490;7.338;2023-04-25T05:24:26;524.55;;;393.95;;
2762;SDS011;1389;51.490;7.338;2023-04-25T05:26:52;450.03;;;285.83;;
2762;SDS011;1389;51.490;7.338;2023-04-25T05:29:18;456.30;;;292.90;;
2762;SDS011;1389;51.490;7.338;2023-04-25T05:31:44;460.23;;;292.52;;
2762;SDS011;1389;51.490;7.338;2023-04-25T05:34:10;440.52;;;268.27;;
2762;SDS011;1389;51.490;7.338;2023-04-25T05:36:36;434.95;;;264.30;;
2762;SDS011;1389;51.490;7.338;2023-04-25T05:39:02;466.63;;;298.52;;
2762;SDS011;1389;51.490;7.338;2023-04-25T05:41:29;431.92;;;258.60;;
2762;SDS011;1389;51.490;7.338;2023-04-25T05:43:55;473.85;;;307.33;;
2762;SDS011;1389;51.490;7.338;2023-04-25T05:46:21;434.38;;;256.73;;
2762;SDS011;1389;51.490;7.338;2023-04-25T05:48:47;463.75;;;300.38;;
2762;SDS011;1389;51.490;7.338;2023-04-25T05:51:13;434.67;;;260.45;;
2762;SDS011;1389;51.490;7.338;2023-04-25T05:53:39;422.70;;;244.27;;
2762;SDS011;1389;51.490;7.338;2023-04-25T05:56:05;485.30;;;335.10;;
2762;SDS011;1389;51.490;7.338;2023-04-25T05:58:31;431.95;;;254.30;;
2762;SDS011;1389;51.490;7.338;2023-04-25T06:00:57;457.38;;;294.13;;
2762;SDS011;1389;51.490;7.338;2023-04-25T06:03:23;422.92;;;241.35;;
2762;SDS011;1389;51.490;7.338;2023-04-25T06:05:49;451.67;;;285.05;;
2762;SDS011;1389;51.490;7.338;2023-04-25T06:08:16;462.65;;;302.30;;
2762;SDS011;1389;51.490;7.338;2023-04-25T06:10:42;451.73;;;277.88;;
2762;SDS011;1389;51.490;7.338;2023-04-25T06:13:08;488.30;;;332.70;;
2762;SDS011;1389;51.490;7.338;2023-04-25T06:15:34;450.83;;;274.00;;
2762;SDS011;1389;51.490;7.338;2023-04-25T06:18:00;442.83;;;269.67;;
2762;SDS011;1389;51.490;7.338;2023-04-25T06:20:26;424.55;;;242.57;;
2762;SDS011;1389;51.490;7.338;2023-04-25T06:22:53;457.25;;;286.73;;
2762;SDS011;1389;51.490;7.338;2023-04-25T06:25:19;465.17;;;300.55;;
2762;SDS011;1389;51.490;7.338;2023-04-25T06:27:45;453.95;;;274.30;;
2762;SDS011;1389;51.490;7.338;2023-04-25T06:30:11;440.77;;;261.42;;
2762;SDS011;1389;51.490;7.338;2023-04-25T06:32:38;481.93;;;313.23;;
2762;SDS011;1389;51.490;7.338;2023-04-25T06:35:04;482.45;;;313.88;;
2762;SDS011;1389;51.490;7.338;2023-04-25T06:37:31;473.73;;;313.20;;
2762;SDS011;1389;51.490;7.338;2023-04-25T06:39:57;451.15;;;275.55;;
2762;SDS011;1389;51.490;7.338;2023-04-25T06:42:23;465.77;;;298.08;;
2762;SDS011;1389;51.490;7.338;2023-04-25T06:44:49;463.38;;;295.90;;
2762;SDS011;1389;51.490;7.338;2023-04-25T06:47:15;462.40;;;296.27;;
2762;SDS011;1389;51.490;7.338;2023-04-25T06:49:41;470.92;;;305.33;;
2762;SDS011;1389;51.490;7.338;2023-04-25T06:52:07;470.15;;;308.40;;
2762;SDS011;1389;51.490;7.338;2023-04-25T06:54:33;471.90;;;303.52;;
2762;SDS011;1389;51.490;7.338;2023-04-25T06:56:59;472.23;;;307.73;;
2762;SDS011;1389;51.490;7.338;2023-04-25T06:59:26;551.58;;;419.35;;
2762;SDS011;1389;51.490;7.338;2023-04-25T07:01:52;482.50;;;309.45;;
2762;SDS011;1389;51.490;7.338;2023-04-25T07:04:18;467.92;;;299.63;;
2762;SDS011;1389;51.490;7.338;2023-04-25T07:06:44;483.73;;;327.50;;
2762;SDS011;1389;51.490;7.338;2023-04-25T07:09:12;469.85;;;303.52;;
2762;SDS011;1389;51.490;7.338;2023-04-25T07:11:38;475.55;;;307.35;;
2762;SDS011;1389;51.490;7.338;2023-04-25T07:14:04;490.17;;;324.58;;
2762;SDS011;1389;51.490;7.338;2023-04-25T07:16:30;493.20;;;338.15;;
2762;SDS011;1389;51.490;7.338;2023-04-25T07:18:56;484.73;;;321.40;;
2762;SDS011;1389;51.490;7.338;2023-04-25T07:21:22;483.67;;;318.15;;
2762;SDS011;1389;51.490;7.338;2023-04-25T07:23:48;482.92;;;315.98;;
2762;SDS011;1389;51.490;7.338;2023-04-25T07:26:15;513.55;;;373.17;;
2762;SDS011;1389;51.490;7.338;2023-04-25T07:28:41;494.33;;;329.30;;
2762;SDS011;1389;51.490;7.338;2023-04-25T07:31:07;501.73;;;345.85;;
2762;SDS011;1389;51.490;7.338;2023-04-25T07:33:33;498.30;;;344.23;;
2762;SDS011;1389;51.490;7.338;2023-04-25T07:35:59;512.10;;;367.30;;
2762;SDS011;1389;51.490;7.338;2023-04-25T07:38:25;492.38;;;332.52;;
2762;SDS011;1389;51.490;7.338;2023-04-25T07:40:51;505.60;;;357.48;;
2762;SDS011;1389;51.490;7.338;2023-04-25T07:43:17;514.22;;;371.77;;
2762;SDS011;1389;51.490;7.338;2023-04-25T07:45:44;497.92;;;339.08;;
2762;SDS011;1389;51.490;7.338;2023-04-25T07:48:11;507.33;;;353.17;;
2762;SDS011;1389;51.490;7.338;2023-04-25T07:50:42;540.63;;;409.70;;
2762;SDS011;1389;51.490;7.338;2023-04-25T07:53:08;547.90;;;424.98;;
2762;SDS011;1389;51.490;7.338;2023-04-25T07:55:34;497.73;;;342.77;;
2762;SDS011;1389;51.490;7.338;2023-04-25T07:58:01;527.53;;;390.55;;
2762;SDS011;1389;51.490;7.338;2023-04-25T08:00:28;512.50;;;363.98;;
2762;SDS011;1389;51.490;7.338;2023-04-25T08:02:54;506.48;;;350.80;;
2762;SDS011;1389;51.490;7.338;2023-04-25T08:05:20;495.85;;;341.35;;
2762;SDS011;1389;51.490;7.338;2023-04-25T08:07:46;503.42;;;347.35;;
2762;SDS011;1389;51.490;7.338;2023-04-25T08:10:12;501.23;;;343.15;;
2762;SDS011;1389;51.490;7.338;2023-04-25T08:12:38;501.75;;;350.25;;
2762;SDS011;1389;51.490;7.338;2023-04-25T08:15:05;504.77;;;350.77;;
2762;SDS011;1389;51.490;7.338;2023-04-25T08:17:31;518.73;;;373.90;;
2762;SDS011;1389;51.490;7.338;2023-04-25T08:19:57;510.55;;;355.88;;
2762;SDS011;1389;51.490;7.338;2023-04-25T08:22:23;504.48;;;339.85;;
2762;SDS011;1389;51.490;7.338;2023-04-25T08:24:49;501.17;;;344.75;;
2762;SDS011;1389;51.490;7.338;2023-04-25T08:27:16;506.63;;;356.10;;
2762;SDS011;1389;51.490;7.338;2023-04-25T08:29:43;508.25;;;353.40;;
2762;SDS011;1389;51.490;7.338;2023-04-25T08:32:09;535.60;;;384.27;;
2762;SDS011;1389;51.490;7.338;2023-04-25T08:34:35;512.90;;;358.63;;
2762;SDS011;1389;51.490;7.338;2023-04-25T08:37:03;520.80;;;370.67;;
2762;SDS011;1389;51.490;7.338;2023-04-25T08:39:29;537.35;;;406.45;;
2762;SDS011;1389;51.490;7.338;2023-04-25T08:41:56;528.35;;;383.05;;
2762;SDS011;1389;51.490;7.338;2023-04-25T08:44:22;535.55;;;380.27;;
2762;SDS011;1389;51.490;7.338;2023-04-25T08:46:50;535.30;;;391.80;;
2762;SDS011;1389;51.490;7.338;2023-04-25T08:49:17;544.67;;;401.10;;
2762;SDS011;1389;51.490;7.338;2023-04-25T08:51:45;506.42;;;355.10;;
2762;SDS011;1389;51.490;7.338;2023-04-25T08:54:12;526.63;;;369.83;;
2762;SDS011;1389;51.490;7.338;2023-04-25T08:56:41;520.22;;;366.75;;
2762;SDS011;1389;51.490;7.338;2023-04-25T08:59:11;525.45;;;384.25;;
2762;SDS011;1389;51.490;7.338;2023-04-25T09:01:37;520.00;;;356.27;;
2762;SDS011;1389;51.490;7.338;2023-04-25T09:04:03;519.58;;;361.48;;
2762;SDS011;1389;51.490;7.338;2023-04-25T09:06:29;530.72;;;377.83;;
2762;SDS011;1389;51.490;7.338;2023-04-25T09:09:03;526.83;;;372.63;;
2762;SDS011;1389;51.490;7.338;2023-04-25T09:11:31;517.45;;;351.08;;
2762;SDS011;1389;51.490;7.338;2023-04-25T09:14:20;513.88;;;352.30;;
2762;SDS011;1389;51.490;7.338;2023-04-25T09:19:28;517.13;;;360.17;;
2762;SDS011;1389;51.490;7.338;2023-04-25T09:22:00;519.95;;;361.58;;
2762;SDS011;1389;51.490;7.338;2023-04-25T09:24:41;523.63;;;368.88;;
2762;SDS011;1389;51.490;7.338;2023-04-25T09:27:12;524.88;;;369.38;;
2762;SDS011;1389;51.490;7.338;2023-04-25T09:29:43;515.33;;;360.00;;
2762;SDS011;1389;51.490;7.338;2023-04-25T09:34:47;524.23;;;353.97;;
2762;SDS011;1389;51.490;7.338;2023-04-25T09:37:24;526.03;;;376.80;;
2762;SDS011;1389;51.490;7.338;2023-04-25T09:39:53;524.05;;;366.00;;
2762;SDS011;1389;51.490;7.338;2023-04-25T09:42:23;535.38;;;381.02;;
2762;SDS011;1389;51.490;7.338;2023-04-25T09:44:54;527.00;;;370.47;;
2762;SDS011;1389;51.490;7.338;2023-04-25T09:47:22;530.30;;;379.70;;
2762;SDS011;1389;51.490;7.338;2023-04-25T09:49:52;547.67;;;406.40;;
2762;SDS011;1389;51.490;7.338;2023-04-25T09:52:22;537.40;;;381.17;;
2762;SDS011;1389;51.490;7.338;2023-04-25T09:54:49;531.22;;;383.00;;
2762;SDS011;1389;51.490;7.338;2023-04-25T09:57:18;587.22;;;468.38;;
2762;SDS011;1389;51.490;7.338;2023-04-25T09:59:46;538.58;;;383.10;;
2762;SDS011;1389;51.490;7.338;2023-04-25T10:02:17;550.70;;;409.02;;
2762;SDS011;1389;51.490;7.338;2023-04-25T10:04:49;520.65;;;356.13;;
2762;SDS011;1389;51.490;7.338;2023-04-25T10:07:18;520.05;;;359.80;;
2762;SDS011;1389;51.490;7.338;2023-04-25T10:09:49;524.27;;;365.10;;
2762;SDS011;1389;51.490;7.338;2023-04-25T10:12:20;524.45;;;363.80;;
2762;SDS011;1389;51.490;7.338;2023-04-25T10:14:47;509.40;;;337.60;;
2762;SDS011;1389;51.490;7.338;2023-04-25T10:17:13;513.65;;;347.77;;
2762;SDS011;1389;51.490;7.338;2023-04-25T10:19:40;517.00;;;355.15;;
2762;SDS011;1389;51.490;7.338;2023-04-25T10:25:01;504.25;;;329.70;;
2762;SDS011;1389;51.490;7.338;2023-04-25T10:27:31;517.22;;;343.42;;
2762;SDS011;1389;51.490;7.338;2023-04-25T10:30:00;512.20;;;339.23;;
2762;SDS011;1389;51.490;7.338;2023-04-25T10:32:31;513.22;;;339.08;;
2762;SDS011;1389;51.490;7.338;2023-04-25T10:35:06;535.15;;;376.77;;
2762;SDS011;1389;51.490;7.338;2023-04-25T10:37:58;505.70;;;325.17;;
2762;SDS011;1389;51.490;7.338;2023-04-25T10:40:28;524.78;;;365.60;;
2762;SDS011;1389;51.490;7.338;2023-04-25T10:42:55;523.17;;;353.90;;
2762;SDS011;1389;51.490;7.338;2023-04-25T10:45:50;550.63;;;408.75;;
2762;SDS011;1389;51.490;7.338;2023-04-25T10:48:30;538.60;;;371.38;;
2762;SDS011;1389;51.490;7.338;2023-04-25T10:51:09;533.10;;;370.58;;
2762;SDS011;1389;51.490;7.338;2023-04-25T10:54:07;538.22;;;377.08;;
2762;SDS011;1389;51.490;7.338;2023-04-25T10:59:19;551.88;;;400.60;;
2762;SDS011;1389;51.490;7.338;2023-04-25T11:01:47;575.30;;;439.73;;
2762;SDS011;1389;51.490;7.338;2023-04-25T11:07:15;582.95;;;439.38;;
2762;SDS011;1389;51.490;7.338;2023-04-25T11:10:03;565.90;;;423.70;;
2762;SDS011;1389;51.490;7.338;2023-04-25T11:12:30;599.70;;;483.73;;
2762;SDS011;1389;51.490;7.338;2023-04-25T11:15:15;584.20;;;453.83;;
2762;SDS011;1389;51.490;7.338;2023-04-25T11:17:41;562.93;;;416.27;;
2762;SDS011;1389;51.490;7.338;2023-04-25T11:20:08;590.30;;;466.38;;
2762;SDS011;1389;51.490;7.338;2023-04-25T11:22:40;586.35;;;453.90;;
2762;SDS011;1389;51.490;7.338;2023-04-25T11:25:07;561.75;;;413.70;;
2762;SDS011;1389;51.490;7.338;2023-04-25T11:27:37;577.90;;;447.25;;
2762;SDS011;1389;51.490;7.338;2023-04-25T11:30:14;567.03;;;417.40;;
2762;SDS011;1389;51.490;7.338;2023-04-25T11:32:41;546.05;;;403.75;;
2762;SDS011;1389;51.490;7.338;2023-04-25T11:35:11;548.55;;;402.98;;
2762;SDS011;1389;51.490;7.338;2023-04-25T11:37:41;595.53;;;483.70;;
2762;SDS011;1389;51.490;7.338;2023-04-25T11:40:12;542.90;;;394.52;;
2762;SDS011;1389;51.490;7.338;2023-04-25T11:42:38;570.92;;;424.83;;
2762;SDS011;1389;51.490;7.338;2023-04-25T11:45:08;549.47;;;397.08;;
2762;SDS011;1389;51.490;7.338;2023-04-25T11:47:35;546.92;;;399.25;;
2762;SDS011;1389;51.490;7.338;2023-04-25T11:50:01;561.30;;;421.10;;
2762;SDS011;1389;51.490;7.338;2023-04-25T11:52:35;550.75;;;407.33;;
2762;SDS011;1389;51.490;7.338;2023-04-25T11:55:09;555.15;;;410.65;;
2762;SDS011;1389;51.490;7.338;2023-04-25T11:57:38;547.50;;;395.10;;
2762;SDS011;1389;51.490;7.338;2023-04-25T12:00:15;547.90;;;386.10;;
2762;SDS011;1389;51.490;7.338;2023-04-25T12:02:44;540.42;;;375.70;;
2762;SDS011;1389;51.490;7.338;2023-04-25T12:05:16;617.92;;;491.75;;
2762;SDS011;1389;51.490;7.338;2023-04-25T12:07:42;539.80;;;380.50;;
2762;SDS011;1389;51.490;7.338;2023-04-25T12:10:09;539.67;;;376.15;;
2762;SDS011;1389;51.490;7.338;2023-04-25T12:12:37;555.90;;;376.40;;
2762;SDS011;1389;51.490;7.338;2023-04-25T12:15:25;666.63;;;549.92;;
2762;SDS011;1389;51.490;7.338;2023-04-25T12:17:52;525.85;;;354.50;;
2762;SDS011;1389;51.490;7.338;2023-04-25T12:20:20;1807.32;;;969.53;;
2762;SDS011;1389;51.490;7.338;2023-04-25T12:22:49;605.55;;;468.73;;
2762;SDS011;1389;51.490;7.338;2023-04-25T12:28:21;570.83;;;415.00;;
2762;SDS011;1389;51.490;7.338;2023-04-25T12:30:58;820.22;;;667.88;;
2762;SDS011;1389;51.490;7.338;2023-04-25T12:33:27;572.38;;;407.60;;
2762;SDS011;1389;51.490;7.338;2023-04-25T12:35:55;515.70;;;344.00;;
2762;SDS011;1389;51.490;7.338;2023-04-25T12:38:25;509.80;;;329.45;;
2762;SDS011;1389;51.490;7.338;2023-04-25T12:40:53;549.97;;;396.92;;
2762;SDS011;1389;51.490;7.338;2023-04-25T12:43:19;549.95;;;391.10;;
2762;SDS011;1389;51.490;7.338;2023-04-25T12:45:48;512.22;;;333.55;;
2762;SDS011;1389;51.490;7.338;2023-04-25T12:48:16;530.47;;;365.50;;
2762;SDS011;1389;51.490;7.338;2023-04-25T12:50:43;508.20;;;337.30;;
2762;SDS011;1389;51.490;7.338;2023-04-25T12:53:09;519.33;;;347.43;;
2762;SDS011;1389;51.490;7.338;2023-04-25T12:55:36;505.53;;;328.50;;
2762;SDS011;1389;51.490;7.338;2023-04-25T12:58:02;506.30;;;326.65;;
2762;SDS011;1389;51.490;7.338;2023-04-25T13:00:29;508.08;;;327.15;;
2762;SDS011;1389;51.490;7.338;2023-04-25T13:02:56;509.42;;;330.45;;
2762;SDS011;1389;51.490;7.338;2023-04-25T13:05:22;547.97;;;393.15;;
2762;SDS011;1389;51.490;7.338;2023-04-25T13:07:48;532.33;;;368.73;;
2762;SDS011;1389;51.490;7.338;2023-04-25T13:10:14;532.40;;;362.17;;
2762;SDS011;1389;51.490;7.338;2023-04-25T13:12:41;518.42;;;341.30;;
2762;SDS011;1389;51.490;7.338;2023-04-25T13:15:07;523.55;;;357.10;;
2762;SDS011;1389;51.490;7.338;2023-04-25T13:17:34;518.15;;;344.20;;
2762;SDS011;1389;51.490;7.338;2023-04-25T13:20:00;587.70;;;452.08;;
2762;SDS011;1389;51.490;7.338;2023-04-25T13:22:26;596.33;;;465.88;;
2762;SDS011;1389;51.490;7.338;2023-04-25T13:24:53;550.23;;;399.27;;
2762;SDS011;1389;51.490;7.338;2023-04-25T13:27:19;542.03;;;384.45;;
2762;SDS011;1389;51.490;7.338;2023-04-25T13:29:45;534.60;;;374.47;;
2762;SDS011;1389;51.490;7.338;2023-04-25T13:32:11;534.17;;;355.67;;
2762;SDS011;1389;51.490;7.338;2023-04-25T13:34:37;527.00;;;357.98;;
2762;SDS011;1389;51.490;7.338;2023-04-25T13:37:03;536.70;;;369.50;;
2762;SDS011;1389;51.490;7.338;2023-04-25T13:39:29;537.15;;;371.23;;
2762;SDS011;1389;51.490;7.338;2023-04-25T13:41:55;537.83;;;376.92;;
2762;SDS011;1389;51.490;7.338;2023-04-25T13:44:21;540.33;;;375.33;;
2762;SDS011;1389;51.490;7.338;2023-04-25T13:46:47;536.03;;;370.60;;
2762;SDS011;1389;51.490;7.338;2023-04-25T13:49:13;537.95;;;375.63;;
2762;SDS011;1389;51.490;7.338;2023-04-25T13:51:40;544.22;;;389.30;;
2762;SDS011;1389;51.490;7.338;2023-04-25T13:54:06;542.33;;;382.85;;
2762;SDS011;1389;51.490;7.338;2023-04-25T13:56:33;574.83;;;433.40;;
2762;SDS011;1389;51.490;7.338;2023-04-25T13:58:59;544.57;;;383.67;;
2762;SDS011;1389;51.490;7.338;2023-04-25T14:01:25;528.13;;;362.10;;
2762;SDS011;1389;51.490;7.338;2023-04-25T14:03:52;540.40;;;385.85;;
2762;SDS011;1389;51.490;7.338;2023-04-25T14:06:19;547.07;;;385.50;;
2762;SDS011;1389;51.490;7.338;2023-04-25T14:08:48;560.13;;;410.25;;
2762;SDS011;1389;51.490;7.338;2023-04-25T14:11:15;575.80;;;416.83;;
2762;SDS011;1389;51.490;7.338;2023-04-25T14:13:44;528.88;;;354.27;;
2762;SDS011;1389;51.490;7.338;2023-04-25T14:16:10;513.20;;;336.23;;
2762;SDS011;1389;51.490;7.338;2023-04-25T14:18:36;501.15;;;315.30;;
2762;SDS011;1389;51.490;7.338;2023-04-25T14:21:02;500.52;;;313.10;;
2762;SDS011;1389;51.490;7.338;2023-04-25T14:23:28;507.25;;;313.95;;
2762;SDS011;1389;51.490;7.338;2023-04-25T14:25:54;503.10;;;308.95;;
2762;SDS011;1389;51.490;7.338;2023-04-25T14:28:20;495.98;;;304.73;;
2762;SDS011;1389;51.490;7.338;2023-04-25T14:30:46;499.45;;;301.17;;
2762;SDS011;1389;51.490;7.338;2023-04-25T14:33:12;480.87;;;264.97;;
2762;SDS011;1389;51.490;7.338;2023-04-25T14:35:39;485.77;;;272.23;;
2762;SDS011;1389;51.490;7.338;2023-04-25T14:38:05;492.45;;;292.95;;
2762;SDS011;1389;51.490;7.338;2023-04-25T14:40:31;500.63;;;308.27;;